Terminal Aerodrome Forecast
Issued by NWS Billings, MT

Home | Current Version | Previous Version | Text Only | Print | Product List | Glossary On
Versions: 1 2 3 4 5 6 7 8 9 10 11 12 13 14
000
FTUS45 KBYZ 282337
TAFSHR
TAF
KSHR 282337Z 2900/2924 34008KT P6SM VCTS BKN080CB
     FM290200 VRB04KT P6SM FEW100
     FM292000 34008KT P6SM SCT200=

USA.gov is the U.S. government's official web portal to all federal, state and local government web resources and services.